createdAt,value
2019-05-28T10:00:59.047Z,5.80
2019-05-28T10:03:35.211Z,7.87
2019-05-28T10:06:16.814Z,5.30
2019-05-28T10:08:48.156Z,4.83
2019-05-28T10:11:35.873Z,5.80
2019-05-28T10:14:13.625Z,5.23
2019-05-28T10:16:47.053Z,4.63
2019-05-28T10:19:22.339Z,5.20
2019-05-28T10:21:56.220Z,6.00
2019-05-28T10:24:39.059Z,4.40
2019-05-28T10:27:16.254Z,4.30
2019-05-28T10:29:55.454Z,4.30
2019-05-28T10:32:36.340Z,4.00
2019-05-28T10:35:37.475Z,5.57
2019-05-28T10:38:27.142Z,3.93
2019-05-28T10:41:15.950Z,3.50
2019-05-28T10:43:57.060Z,4.27
2019-05-28T10:46:38.081Z,4.73
2019-05-28T10:49:25.376Z,3.47
2019-05-28T10:51:58.054Z,3.93
2019-05-28T10:54:35.847Z,3.33
2019-05-28T10:57:16.654Z,4.20
2019-05-28T10:59:54.519Z,4.00
2019-05-28T11:02:27.569Z,3.50
2019-05-28T11:05:06.312Z,3.37
2019-05-28T11:07:46.496Z,3.20
2019-05-28T11:10:36.737Z,4.20
2019-05-28T11:13:24.057Z,3.50
2019-05-28T11:15:56.910Z,2.87
2019-05-28T11:18:38.231Z,3.17
2019-05-28T11:22:05.107Z,3.50
2019-05-28T11:23:55.944Z,3.10
2019-05-28T11:27:25.277Z,3.10
2019-05-28T11:29:35.868Z,3.07
2019-05-28T11:32:16.702Z,3.13
2019-05-28T11:34:56.738Z,2.87
2019-05-28T11:37:34.112Z,2.60
2019-05-28T11:40:07.657Z,3.40
2019-05-28T11:42:45.150Z,3.20
2019-05-28T11:45:25.507Z,4.03
2019-05-28T11:48:03.219Z,2.83
2019-05-28T11:50:36.409Z,2.90
2019-05-28T11:53:16.634Z,3.90
2019-05-28T11:55:54.597Z,3.23
2019-05-28T11:58:28.204Z,3.70
2019-05-28T12:01:06.907Z,5.17
2019-05-28T12:03:47.522Z,4.60
2019-05-28T12:06:26.161Z,4.20
2019-05-28T12:09:04.672Z,4.80
2019-05-28T12:11:38.455Z,4.83
2019-05-28T12:14:16.383Z,4.63
2019-05-28T12:16:54.540Z,5.93
2019-05-28T12:19:27.760Z,5.23
2019-05-28T12:22:26.075Z,4.57
2019-05-28T12:25:15.843Z,5.20
2019-05-28T12:27:55.963Z,5.10
2019-05-28T12:30:37.028Z,4.90
2019-05-28T12:33:18.473Z,4.80
2019-05-28T12:35:57.925Z,5.30
2019-05-28T12:38:47.221Z,6.00
2019-05-28T12:41:29.732Z,4.93
2019-05-28T12:44:08.091Z,5.30
2019-05-28T12:47:05.694Z,4.90
2019-05-28T12:49:46.260Z,4.70
2019-05-28T12:52:46.492Z,5.13
2019-05-28T12:54:57.460Z,4.53
2019-05-28T12:57:36.169Z,5.23
2019-05-28T13:00:12.046Z,5.20
2019-05-28T13:02:48.556Z,6.20
2019-05-28T13:05:27.449Z,5.20
2019-05-28T13:08:09.311Z,4.73
2019-05-28T13:10:36.435Z,5.80
2019-05-28T13:13:10.579Z,5.13
2019-05-28T13:15:44.154Z,4.90
2019-05-28T13:18:18.014Z,5.80
2019-05-28T13:20:51.320Z,6.37
2019-05-28T13:23:25.236Z,5.47
2019-05-28T13:26:03.916Z,5.10
2019-05-28T13:28:41.067Z,5.37
2019-05-28T13:31:15.529Z,4.80
2019-05-28T13:33:49.568Z,4.83
2019-05-28T13:36:24.579Z,5.07
2019-05-28T13:38:58.499Z,4.73
2019-05-28T13:41:31.215Z,4.30
2019-05-28T13:44:08.056Z,4.50
2019-05-28T13:46:46.003Z,3.80
2019-05-28T13:49:19.365Z,4.10
2019-05-28T13:52:10.774Z,4.73
2019-05-28T13:54:27.937Z,4.20
2019-05-28T13:57:03.857Z,4.90
2019-05-28T13:59:36.622Z,3.80
2019-05-28T14:02:10.022Z,4.90
2019-05-28T14:04:45.365Z,4.30
2019-05-28T14:07:35.837Z,4.60
2019-05-28T14:13:07.944Z,5.43
2019-05-28T14:16:14.320Z,4.30
2019-05-28T14:18:48.663Z,4.73
2019-05-28T14:21:27.141Z,4.40
2019-05-28T14:24:07.423Z,4.70
2019-05-28T14:26:44.888Z,4.40
2019-05-28T14:29:18.799Z,4.47
2019-05-28T14:31:55.777Z,4.53
2019-05-28T14:34:28.686Z,4.47
2019-05-28T14:37:04.387Z,4.97
2019-05-28T14:39:40.871Z,4.90
2019-05-28T14:42:17.648Z,5.45
2019-05-28T14:44:56.374Z,5.47
2019-05-28T14:47:37.379Z,6.00
2019-05-28T14:50:10.519Z,6.05
2019-05-28T14:52:45.373Z,6.58
2019-05-28T14:55:18.962Z,6.75
2019-05-28T14:57:54.585Z,6.20
2019-05-28T15:00:27.747Z,5.45
2019-05-28T15:03:06.397Z,5.70
2019-05-28T15:05:41.049Z,5.83
2019-05-28T15:08:16.704Z,6.70
2019-05-28T15:10:51.083Z,5.63
2019-05-28T15:13:24.206Z,5.75
2019-05-28T15:15:57.512Z,5.20
2019-05-28T15:18:34.914Z,5.83
2019-05-28T15:21:14.416Z,6.47
2019-05-28T15:23:47.839Z,5.75
2019-05-28T15:26:44.701Z,5.65
2019-05-28T15:29:18.089Z,7.12
2019-05-28T15:31:55.455Z,6.70
2019-05-28T15:34:34.948Z,7.75
2019-05-28T15:37:07.925Z,7.92
2019-05-28T15:39:43.366Z,6.45
2019-05-28T15:42:20.756Z,6.53
2019-05-28T15:44:55.770Z,7.28
2019-05-28T15:47:30.085Z,7.03
2019-05-28T15:50:08.831Z,7.00
2019-05-28T15:52:44.307Z,7.80
2019-05-28T15:55:18.315Z,6.62
2019-05-28T15:57:56.653Z,6.50
2019-05-28T16:00:28.134Z,6.83
2019-05-28T16:03:05.211Z,6.65
2019-05-28T16:05:38.746Z,6.55
2019-05-28T16:08:11.903Z,6.60
2019-05-28T16:10:45.504Z,6.60
2019-05-28T16:13:18.597Z,6.20
2019-05-28T16:15:54.413Z,5.80
2019-05-28T16:18:27.858Z,5.93
2019-05-28T16:21:01.103Z,5.90
2019-05-28T16:23:35.702Z,5.53
2019-05-28T16:26:08.343Z,6.00
2019-05-28T16:28:43.605Z,6.10
2019-05-28T16:31:16.534Z,6.27
2019-05-28T16:33:55.308Z,6.73
2019-05-28T16:36:28.417Z,8.65
2019-05-28T16:39:05.880Z,8.50
2019-05-28T16:41:39.839Z,7.35
2019-05-28T16:44:12.466Z,8.17
2019-05-28T16:46:47.716Z,7.37
2019-05-28T16:49:20.976Z,7.78
2019-05-28T16:51:56.532Z,8.13
2019-05-28T16:54:37.613Z,7.08
2019-05-28T16:57:15.817Z,6.90
2019-05-28T16:59:48.962Z,8.40
2019-05-28T17:02:31.950Z,7.17
2019-05-28T17:05:06.512Z,7.15
2019-05-28T17:07:40.708Z,8.38
2019-05-28T17:10:31.402Z,6.58
2019-05-28T17:12:54.849Z,7.35
2019-05-28T17:15:28.092Z,7.85
2019-05-28T17:18:03.319Z,6.72
2019-05-28T17:20:39.259Z,7.10
2019-05-28T17:23:17.889Z,7.08
2019-05-28T17:25:51.732Z,7.75
2019-05-28T17:28:25.030Z,7.25
2019-05-28T17:30:58.201Z,9.35
2019-05-28T17:33:35.781Z,7.17
2019-05-28T17:36:08.873Z,7.62
2019-05-28T17:38:49.412Z,7.00
2019-05-28T17:41:22.661Z,6.70
2019-05-28T17:43:58.037Z,7.00
2019-05-28T17:46:33.685Z,7.20
2019-05-28T17:49:07.270Z,6.67
2019-05-28T17:51:41.972Z,7.15
2019-05-28T17:54:15.831Z,6.05
2019-05-28T17:56:51.210Z,5.85
2019-05-28T17:59:26.281Z,4.95
2019-05-28T18:01:59.356Z,4.70
2019-05-28T18:04:35.908Z,6.35
2019-05-28T18:07:16.960Z,3.72
2019-05-28T18:09:48.646Z,4.42
2019-05-28T18:12:24.718Z,4.83
2019-05-28T18:14:58.213Z,3.62
2019-05-28T18:17:32.915Z,4.15
2019-05-28T18:20:06.842Z,4.30
2019-05-28T18:22:40.353Z,3.25
2019-05-28T18:25:13.483Z,2.90
2019-05-28T18:27:46.985Z,3.20
2019-05-28T18:30:20.860Z,3.10
2019-05-28T18:32:54.037Z,2.20
2019-05-28T18:35:27.918Z,2.83
2019-05-28T18:38:04.100Z,2.12
2019-05-28T18:40:37.444Z,2.40
2019-05-28T18:43:11.399Z,3.08
2019-05-28T18:45:44.607Z,2.58
2019-05-28T18:48:17.805Z,2.90
2019-05-28T18:50:51.519Z,2.00
2019-05-28T18:53:24.833Z,2.77
2019-05-28T18:55:57.940Z,1.80
2019-05-28T18:58:35.412Z,2.80
2019-05-28T19:01:07.349Z,2.27
2019-05-28T19:03:40.028Z,1.77
2019-05-28T19:06:16.068Z,2.08
2019-05-28T19:08:49.618Z,2.60
2019-05-28T19:11:37.481Z,2.60
2019-05-28T19:14:06.720Z,2.42
2019-05-28T19:16:47.128Z,2.30
2019-05-28T19:19:27.916Z,2.10
2019-05-28T19:22:17.871Z,3.22
2019-05-28T19:24:58.477Z,1.82
2019-05-28T19:27:44.762Z,1.75
2019-05-28T19:30:36.454Z,2.02
2019-05-28T19:33:07.962Z,1.65
2019-05-28T19:35:45.469Z,1.98
2019-05-28T19:38:19.433Z,1.75
2019-05-28T19:40:55.599Z,1.95
2019-05-28T19:43:28.577Z,1.77
2019-05-28T19:46:01.794Z,1.50
2019-05-28T19:48:34.579Z,1.50
2019-05-28T19:51:07.688Z,1.30
2019-05-28T19:53:45.561Z,1.57
2019-05-28T19:56:18.801Z,1.70
2019-05-28T19:58:56.060Z,1.30
2019-05-28T20:01:34.192Z,2.15
2019-05-28T20:04:07.309Z,1.32
2019-05-28T20:06:45.338Z,2.00
2019-05-28T20:09:19.280Z,1.40
2019-05-28T20:12:11.182Z,1.90
2019-05-28T20:14:35.547Z,2.20
2019-05-28T20:17:10.879Z,2.10
2019-05-28T20:19:47.424Z,1.70
2019-05-28T20:22:26.826Z,1.80
2019-05-28T20:24:58.067Z,1.57
2019-05-28T20:27:37.315Z,1.60
2019-05-28T20:30:14.916Z,1.52
2019-05-28T20:32:48.781Z,1.52
2019-05-28T20:35:30.926Z,1.60
2019-05-28T20:38:09.706Z,1.75
2019-05-28T20:40:46.512Z,1.12
2019-05-28T20:43:19.964Z,1.67
2019-05-28T20:45:56.279Z,1.85
2019-05-28T20:48:29.428Z,1.70
2019-05-28T20:51:16.045Z,1.60
2019-05-28T20:53:47.457Z,1.40
2019-05-28T20:56:19.017Z,1.32
2019-05-28T20:59:00.084Z,2.02
2019-05-28T21:01:37.606Z,1.50
2019-05-28T21:04:18.610Z,1.52
2019-05-28T21:06:54.767Z,1.50
2019-05-28T21:09:28.703Z,1.15
2019-05-28T21:12:02.646Z,1.10
2019-05-28T21:14:37.854Z,1.57
2019-05-28T21:17:15.123Z,1.92
2019-05-28T21:19:47.793Z,1.30
2019-05-28T21:22:26.453Z,1.20
2019-05-28T21:24:58.942Z,1.67
2019-05-28T21:27:35.034Z,1.92
2019-05-28T21:30:10.043Z,1.10
2019-05-28T21:32:47.516Z,1.50
2019-05-28T21:35:42.462Z,1.52
2019-05-28T21:37:57.373Z,1.17
2019-05-28T21:40:31.760Z,1.52
2019-05-28T21:43:09.767Z,1.82
2019-05-28T21:45:43.599Z,1.62
2019-05-28T21:48:19.376Z,1.20
2019-05-28T21:50:56.686Z,2.60
2019-05-28T21:53:31.941Z,1.27
2019-05-28T21:56:05.125Z,1.77
2019-05-28T21:58:37.679Z,1.25
2019-05-28T22:01:15.958Z,1.30
2019-05-28T22:03:51.346Z,1.60
2019-05-28T22:06:26.856Z,1.40
2019-05-28T22:09:05.766Z,1.62
2019-05-28T22:11:39.967Z,1.40
2019-05-28T22:14:13.326Z,1.60
2019-05-28T22:16:46.787Z,1.55
2019-05-28T22:19:19.351Z,1.30
2019-05-28T22:22:00.390Z,1.45
2019-05-28T22:24:35.870Z,1.35
2019-05-28T22:27:08.924Z,1.62
2019-05-28T22:29:43.158Z,1.25
2019-05-28T22:32:16.134Z,1.40
2019-05-28T22:34:49.746Z,1.62
2019-05-28T22:37:22.511Z,1.77
2019-05-28T22:39:57.273Z,1.40
2019-05-28T22:42:30.489Z,1.65
2019-05-28T22:45:05.111Z,1.60
2019-05-28T22:47:38.509Z,1.60
2019-05-28T22:50:22.092Z,1.62
2019-05-28T22:52:46.585Z,1.40
2019-05-28T22:55:20.080Z,1.35
2019-05-28T22:57:53.992Z,1.40
2019-05-28T23:00:27.452Z,1.70
2019-05-28T23:03:00.940Z,1.37
2019-05-28T23:05:33.978Z,1.75
2019-05-28T23:08:07.805Z,1.62
2019-05-28T23:10:41.261Z,1.55
2019-05-28T23:13:14.018Z,2.02
2019-05-28T23:15:47.624Z,1.35
2019-05-28T23:18:20.472Z,1.42
2019-05-28T23:20:54.313Z,1.70
2019-05-28T23:23:27.663Z,1.80
2019-05-28T23:26:01.238Z,1.52
2019-05-28T23:28:33.979Z,2.17
2019-05-28T23:31:08.069Z,1.65
2019-05-28T23:33:41.780Z,1.50
2019-05-28T23:36:14.736Z,1.90
2019-05-28T23:38:48.435Z,1.80
2019-05-28T23:41:20.924Z,1.72
2019-05-28T23:44:01.797Z,1.45
2019-05-28T23:46:29.231Z,1.95
2019-05-28T23:49:02.565Z,1.57
2019-05-28T23:51:35.977Z,1.67
2019-05-28T23:54:09.713Z,2.20
2019-05-28T23:56:42.922Z,2.08
2019-05-28T23:59:16.235Z,2.00
